Witmer, Pennsylvania
Current Conditions -  °F | °C
As of 5:53 AM on Thursday 23 Oct 2014 (Local Time) from KLNS Reporting Station
Overcast Overcast  
Wind Chill: 51°   Ceiling: 5000
Heat Index: 51°   Visibility: 10mi
Dew Point: 42°   Wind: 10mph
Humidity: 71%   Direction: 340°NNW
Pressure: 29.84"   Gusts: 18mph
Location:  40.05°N, 76.21°W
Report Text: KLNS 230953Z 34009G16KT 10SM FEW027 OVC050 11/06 A2984 RMK AO2 SLP107 T01060056
Loading
Personal Weather Stations






























Interactive Weather Map
Tropical Storm Tracking
New forecast layout! Learn more

10-Day Weather Forecast

Advertisements
Track Severe Weather on mobile